Time;durP1;ratioP1;P1;durP2;ratioP2;P2;SDS_P1;SDS_P2;PMS_P1;PMS_P2;Temp;Humidity;BMP_temperature;BMP_pressure;BME280_temperature;BME280_humidity;BME280_pressure;Samples;Min_cycle;Max_cycle;Signal;HPM_P1;HPM_P2
2023/06/16 05:14:23;;;;;;;11.23;5.90;;;;;;;22.16;62.02;100742.78;2137330;27;20321;-66
2023/06/16 05:15:26;;;;;;;10.43;5.95;;;;;;;22.27;60.48;100741.13;2111954;28;21275;-68
2023/06/16 05:16:28;;;;;;;12.13;6.13;;;;;;;22.48;60.05;100738.13;2096395;27;20037;-70
2023/06/16 05:17:32;;;;;;;9.73;6.38;;;;;;;22.66;59.52;100744.81;2096426;28;20982;-67
2023/06/16 05:18:37;;;;;;;12.73;6.90;;;;;;;22.75;59.90;100752.06;2113147;27;20032;-68
2023/06/16 05:19:39;;;;;;;12.52;6.80;;;;;;;22.82;58.68;100746.72;2113394;27;20016;-68
2023/06/16 05:20:41;;;;;;;11.63;6.07;;;;;;;22.90;58.47;100741.06;2121993;27;20139;-67
2023/06/16 05:21:46;;;;;;;10.57;6.25;;;;;;;23.05;58.13;100744.94;2114000;27;20047;-68
2023/06/16 05:22:48;;;;;;;11.43;6.30;;;;;;;23.27;57.90;100748.94;2113556;27;20143;-68
2023/06/16 05:23:49;;;;;;;11.57;6.20;;;;;;;23.39;57.00;100749.94;2113402;27;20029;-68
2023/06/16 05:24:57;;;;;;;9.98;6.00;;;;;;;23.35;57.58;100744.38;2113835;27;20044;-68
2023/06/16 05:25:59;;;;;;;9.98;6.70;;;;;;;23.53;57.76;100742.00;2112502;27;21325;-67
2023/06/16 05:27:00;;;;;;;9.90;6.50;;;;;;;23.82;57.92;100744.16;2111861;27;20146;-68
2023/06/16 05:28:03;;;;;;;12.43;6.85;;;;;;;23.91;56.85;100745.91;2119987;27;20863;-68
2023/06/16 05:29:06;;;;;;;10.75;6.40;;;;;;;23.84;56.17;100737.53;2118684;27;20032;-68
2023/06/16 05:30:09;;;;;;;11.85;7.20;;;;;;;23.71;56.06;100748.69;2122024;27;20876;-68
2023/06/16 05:31:11;;;;;;;11.15;6.60;;;;;;;23.68;56.68;100738.41;2121597;27;20875;-68
2023/06/16 05:32:15;;;;;;;11.32;7.28;;;;;;;23.21;56.57;100747.66;2113444;27;20031;-68
2023/06/16 05:33:17;;;;;;;11.05;7.10;;;;;;;23.30;57.36;100745.50;2113023;28;20888;-68
2023/06/16 05:34:21;;;;;;;11.90;7.22;;;;;;;23.07;57.59;100744.59;2104824;28;20147;-67
2023/06/16 05:35:23;;;;;;;10.10;6.65;;;;;;;23.53;57.75;100744.75;2104802;27;20880;-68
2023/06/16 05:36:34;;;;;;;9.57;7.22;;;;;;;23.74;55.97;100747.97;2113435;27;20037;-68
2023/06/16 05:37:36;;;;;;;11.05;7.45;;;;;;;23.72;56.18;100747.50;2113560;27;20155;-67
2023/06/16 05:38:39;;;;;;;9.10;7.15;;;;;;;23.43;56.83;100743.41;2112760;27;20998;-68
2023/06/16 05:39:44;;;;;;;14.40;7.22;;;;;;;22.95;57.63;100740.03;2112112;27;21282;-68
2023/06/16 05:40:47;;;;;;;12.27;7.15;;;;;;;22.74;58.26;100739.50;2109989;27;20025;-68
2023/06/16 05:41:49;;;;;;;13.77;7.30;;;;;;;22.52;58.66;100743.69;2108642;28;20848;-68
2023/06/16 05:42:52;;;;;;;10.15;7.45;;;;;;;22.33;59.23;100739.72;2087930;28;20046;-68
2023/06/16 05:43:57;;;;;;;14.52;9.07;;;;;;;22.57;58.78;100746.16;2096896;27;20107;-68
2023/06/16 05:45:00;;;;;;;12.45;8.50;;;;;;;22.63;58.74;100750.22;2103291;28;20025;-68
2023/06/16 05:46:02;;;;;;;13.68;8.93;;;;;;;22.22;59.10;100746.88;2095132;28;20029;-68
2023/06/16 05:47:05;;;;;;;14.85;9.18;;;;;;;22.11;59.84;100756.75;2095077;28;20257;-68
2023/06/16 05:48:07;;;;;;;12.07;8.38;;;;;;;22.03;60.25;100749.47;2095806;28;20069;-68
2023/06/16 05:49:09;;;;;;;14.20;8.63;;;;;;;21.86;60.93;100754.13;2104649;28;20020;-70
2023/06/16 05:50:11;;;;;;;12.32;8.75;;;;;;;21.62;60.84;100756.97;2098076;27;20030;-71
2023/06/16 05:51:15;;;;;;;11.40;7.93;;;;;;;21.44;61.34;100754.53;2121504;27;20139;-70
2023/06/16 05:52:16;;;;;;;11.93;8.90;;;;;;;21.70;61.12;100754.09;2113251;27;20041;-68
2023/06/16 05:53:18;;;;;;;13.98;8.63;;;;;;;21.41;61.48;100757.97;2113859;27;20127;-68
2023/06/16 05:54:20;;;;;;;15.82;9.45;;;;;;;21.39;62.30;100749.31;2122538;27;20016;-68
2023/06/16 05:55:23;;;;;;;15.60;8.77;;;;;;;22.21;61.28;100756.25;2122522;27;20024;-68
2023/06/16 05:56:33;;;;;;;14.82;9.55;;;;;;;22.98;59.73;100752.22;2105265;28;20020;-68
2023/06/16 05:57:36;;;;;;;14.00;9.43;;;;;;;23.30;58.20;100755.66;2098652;27;20162;-68
2023/06/16 05:58:39;;;;;;;12.48;8.52;;;;;;;23.12;58.86;100756.06;2105561;28;20855;-68
2023/06/16 05:59:41;;;;;;;14.48;9.68;;;;;;;22.95;59.63;100766.63;2105406;28;20024;-68
2023/06/16 06:00:43;;;;;;;13.20;8.90;;;;;;;23.11;59.33;100764.66;2097054;28;20827;-68
2023/06/16 06:01:51;;;;;;;17.80;9.00;;;;;;;23.08;58.83;100765.38;2098478;28;20033;-68
2023/06/16 06:02:53;;;;;;;14.23;8.70;;;;;;;22.83;58.84;100765.59;2097173;28;20032;-68
2023/06/16 06:04:04;;;;;;;13.35;8.90;;;;;;;22.55;58.91;100767.66;2106737;27;20040;-69
2023/06/16 06:05:07;;;;;;;12.18;8.77;;;;;;;22.93;58.32;100760.69;2103950;28;20171;-68
2023/06/16 06:06:10;;;;;;;14.48;8.52;;;;;;;23.41;57.06;100764.13;2104850;27;20095;-68
2023/06/16 06:07:11;;;;;;;15.15;8.15;;;;;;;23.50;56.24;100764.69;2095632;28;20021;-69
2023/06/16 06:08:15;;;;;;;13.25;7.38;;;;;;;23.68;55.50;100760.34;2106085;27;20875;-68
2023/06/16 06:09:16;;;;;;;13.50;7.05;;;;;;;23.60;56.06;100761.38;2113307;28;20852;-68
2023/06/16 06:10:19;;;;;;;12.00;6.70;;;;;;;23.77;55.31;100758.22;2097268;28;20107;-69
2023/06/16 06:11:21;;;;;;;9.75;6.10;;;;;;;23.34;55.41;100760.06;2105679;27;20079;-70
2023/06/16 06:12:23;;;;;;;12.43;7.28;;;;;;;22.83;55.93;100757.34;2096764;28;20038;-68
2023/06/16 06:13:25;;;;;;;11.20;7.35;;;;;;;22.98;56.30;100754.94;2105234;27;20013;-67
2023/06/16 06:14:28;;;;;;;9.27;6.50;;;;;;;23.28;56.61;100760.72;2103800;28;20786;-68
2023/06/16 06:15:32;;;;;;;11.82;7.05;;;;;;;23.44;56.47;100750.47;2096504;27;20033;-68
2023/06/16 06:16:40;;;;;;;9.80;6.32;;;;;;;23.95;55.36;100757.75;2114866;27;20082;-68
2023/06/16 06:17:42;;;;;;;9.88;6.50;;;;;;;24.38;53.40;100758.50;2104857;28;20127;-70
2023/06/16 06:18:46;;;;;;;11.63;6.35;;;;;;;24.71;52.77;100761.38;2108645;27;20048;-69
2023/06/16 06:19:50;;;;;;;10.80;6.30;;;;;;;25.04;52.16;100751.66;2113469;27;20131;-68
2023/06/16 06:20:52;;;;;;;10.07;6.68;;;;;;;24.88;50.85;100759.31;2113904;27;20123;-68
2023/06/16 06:21:54;;;;;;;9.65;6.03;;;;;;;25.22;51.13;100756.63;2121725;27;20764;-68
2023/06/16 06:22:55;;;;;;;12.52;6.57;;;;;;;25.58;50.54;100752.38;2114160;27;20016;-68
2023/06/16 06:23:59;;;;;;;11.88;6.07;;;;;;;25.76;49.56;100758.88;2095279;28;20250;-68
2023/06/16 06:25:03;;;;;;;12.18;6.40;;;;;;;25.79;49.51;100757.31;2094262;28;20071;-68
2023/06/16 06:26:05;;;;;;;12.73;6.10;;;;;;;26.03;48.61;100759.56;2090285;28;20046;-68
2023/06/16 06:27:10;;;;;;;8.50;5.82;;;;;;;26.06;48.55;100756.03;2083090;28;20065;-68
2023/06/16 06:28:12;;;;;;;10.48;6.30;;;;;;;26.11;48.45;100755.69;2107510;28;20021;-68
2023/06/16 06:29:16;;;;;;;9.23;5.82;;;;;;;26.27;47.46;100760.97;2102791;28;20044;-69
2023/06/16 06:30:17;;;;;;;11.60;6.72;;;;;;;25.23;49.06;100764.53;2091733;28;20025;-67
2023/06/16 06:31:20;;;;;;;10.70;6.57;;;;;;;25.51;49.38;100764.09;2099738;28;20968;-67
2023/06/16 06:32:23;;;;;;;10.15;6.93;;;;;;;25.71;48.49;100761.16;2099313;28;20143;-67
2023/06/16 06:33:27;;;;;;;8.38;6.47;;;;;;;25.92;48.72;100766.16;2082876;28;20037;-68
2023/06/16 06:34:29;;;;;;;9.95;6.75;;;;;;;26.28;47.94;100767.25;2092176;27;20140;-67
2023/06/16 06:35:32;;;;;;;10.05;6.57;;;;;;;26.40;47.66;100758.72;2108321;28;20082;-68
2023/06/16 06:36:39;;;;;;;9.77;6.60;;;;;;;26.37;47.47;100761.44;2115627;27;20087;-68
2023/06/16 06:37:41;;;;;;;15.52;6.90;;;;;;;26.48;47.19;100760.38;2098711;28;20981;-68
2023/06/16 06:38:42;;;;;;;10.98;6.25;;;;;;;26.30;48.41;100770.44;2097469;28;20033;-68
2023/06/16 06:39:45;;;;;;;9.05;6.72;;;;;;;26.23;48.83;100762.09;2097251;28;20048;-68
2023/06/16 06:40:47;;;;;;;11.93;7.03;;;;;;;26.33;47.23;100759.44;2099165;28;20158;-68
2023/06/16 06:41:50;;;;;;;9.25;6.82;;;;;;;26.23;46.80;100764.84;2093732;28;20064;-68
2023/06/16 06:42:57;;;;;;;9.18;6.68;;;;;;;26.22;47.56;100768.78;2093289;28;20847;-68
2023/06/16 06:44:13;;;;;;;13.73;7.75;;;;;;;26.21;47.41;100768.00;2109337;27;20025;-68
2023/06/16 06:45:22;;;;;;;12.70;6.95;;;;;;;26.08;47.49;100756.47;2103371;28;20030;-67
2023/06/16 06:46:24;;;;;;;10.88;7.82;;;;;;;26.08;48.27;100763.94;2098086;28;20151;-67
2023/06/16 06:47:27;;;;;;;8.80;6.32;;;;;;;26.28;47.11;100764.50;2097972;28;20025;-67
2023/06/16 06:48:33;;;;;;;14.70;6.90;;;;;;;26.57;46.66;100762.78;2091530;28;20017;-67
2023/06/16 06:49:41;;;;;;;16.58;7.00;;;;;;;26.87;46.74;100765.38;2100459;28;20115;-68
2023/06/16 06:50:42;;;;;;;12.50;7.68;;;;;;;27.18;45.08;100763.22;2115441;27;20040;-68
2023/06/16 06:51:44;;;;;;;11.38;7.18;;;;;;;26.76;46.13;100765.28;2115722;28;20035;-68
2023/06/16 06:52:46;;;;;;;12.30;6.90;;;;;;;26.72;46.97;100758.19;2116102;27;20028;-68
2023/06/16 06:53:52;;;;;;;10.65;6.63;;;;;;;26.70;47.05;100772.38;2107413;28;20029;-68
2023/06/16 06:54:56;;;;;;;11.35;7.00;;;;;;;27.18;45.63;100758.50;2100529;28;20065;-67
2023/06/16 06:55:58;;;;;;;9.20;6.47;;;;;;;27.77;43.66;100768.56;2099410;28;20033;-67
2023/06/16 06:57:02;;;;;;;10.35;5.97;;;;;;;28.02;44.06;100765.88;2107595;27;20037;-70
2023/06/16 06:58:05;;;;;;;9.43;6.55;;;;;;;27.86;43.09;100763.47;2124628;27;20139;-68
2023/06/16 06:59:06;;;;;;;10.55;6.53;;;;;;;28.04;43.13;100769.03;2107593;28;20032;-68
2023/06/16 07:00:11;;;;;;;11.82;6.38;;;;;;;27.95;42.34;100770.19;2099671;28;20140;-68
2023/06/16 07:01:13;;;;;;;10.70;6.50;;;;;;;27.83;42.02;100767.81;2091300;28;20155;-68
2023/06/16 07:02:16;;;;;;;6.88;6.10;;;;;;;28.23;42.28;100765.13;2091077;28;20041;-68
2023/06/16 07:03:18;;;;;;;8.75;6.50;;;;;;;28.30;41.66;100763.13;2099815;28;20048;-68
2023/06/16 07:04:20;;;;;;;9.05;5.57;;;;;;;28.30;41.07;100765.09;2106531;28;20024;-67
2023/06/16 07:05:22;;;;;;;7.65;5.00;;;;;;;28.60;40.46;100770.28;2098561;28;20040;-67
2023/06/16 07:06:24;;;;;;;13.30;5.68;;;;;;;28.66;40.75;100771.47;2089696;28;20037;-68
2023/06/16 07:07:26;;;;;;;7.07;5.43;;;;;;;28.65;40.45;100765.09;2089895;28;20056;-68
2023/06/16 07:08:28;;;;;;;6.97;5.25;;;;;;;28.59;40.75;100763.13;2099833;28;20095;-67
2023/06/16 07:09:30;;;;;;;7.53;5.38;;;;;;;28.80;39.89;100771.41;2107390;28;20032;-68
2023/06/16 07:10:32;;;;;;;7.15;5.10;;;;;;;28.62;39.48;100760.38;2099469;28;20036;-67
2023/06/16 07:11:35;;;;;;;7.28;5.03;;;;;;;28.97;39.22;100766.25;2107723;28;20020;-68
2023/06/16 07:12:36;;;;;;;7.68;4.78;;;;;;;29.17;39.44;100761.09;2099280;28;21177;-68
2023/06/16 07:13:38;;;;;;;9.50;5.15;;;;;;;29.40;39.18;100755.06;2091722;27;20049;-67
2023/06/16 07:14:41;;;;;;;8.18;5.18;;;;;;;29.67;38.61;100758.91;2107210;28;20037;-69
2023/06/16 07:15:43;;;;;;;9.93;5.63;;;;;;;29.89;37.56;100754.03;2116219;27;20880;-68
2023/06/16 07:16:46;;;;;;;7.80;4.95;;;;;;;29.98;37.90;100750.78;2124362;27;20890;-68
2023/06/16 07:17:48;;;;;;;8.15;5.13;;;;;;;29.86;37.32;100757.59;2116002;27;20032;-68
2023/06/16 07:18:49;;;;;;;7.93;5.25;;;;;;;29.96;37.59;100756.75;2107528;28;20825;-68
2023/06/16 07:19:51;;;;;;;8.88;5.13;;;;;;;29.83;37.41;100763.97;2091013;28;20910;-68
2023/06/16 07:20:53;;;;;;;7.47;5.05;;;;;;;29.86;37.81;100762.38;2116390;27;20833;-68
2023/06/16 07:21:56;;;;;;;6.38;4.88;;;;;;;29.84;38.01;100764.75;2116042;28;20758;-68
2023/06/16 07:23:00;;;;;;;9.75;5.57;;;;;;;29.90;37.76;100763.13;2098430;28;20840;-68
2023/06/16 07:24:02;;;;;;;8.55;5.47;;;;;;;29.74;37.75;100763.63;2106665;28;20084;-67
2023/06/16 07:25:09;;;;;;;7.38;5.10;;;;;;;29.28;38.22;100764.59;2106543;27;20071;-68
2023/06/16 07:26:11;;;;;;;6.25;4.75;;;;;;;28.26;38.59;100758.78;2107260;28;20031;-69
2023/06/16 07:27:12;;;;;;;8.48;5.20;;;;;;;28.48;38.58;100760.41;2099582;28;20147;-67
2023/06/16 07:28:14;;;;;;;8.30;5.65;;;;;;;28.29;39.26;100764.31;2091173;28;20029;-67
2023/06/16 07:29:17;;;;;;;9.38;5.72;;;;;;;28.31;39.48;100767.50;2078016;28;20142;-67
2023/06/16 07:30:22;;;;;;;9.30;5.90;;;;;;;28.52;39.52;100769.47;2092086;28;20022;-67
2023/06/16 07:31:25;;;;;;;9.27;5.55;;;;;;;28.94;38.73;100769.81;2107805;28;20149;-67
2023/06/16 07:32:27;;;;;;;7.32;5.05;;;;;;;29.36;38.54;100770.91;2107391;28;20139;-68
2023/06/16 07:33:35;;;;;;;6.63;5.57;;;;;;;28.92;38.78;100769.44;2107972;28;20127;-68
2023/06/16 07:34:39;;;;;;;9.07;5.70;;;;;;;28.35;39.09;100757.22;2100928;28;20084;-67
2023/06/16 07:35:40;;;;;;;8.57;5.38;;;;;;;27.40;40.85;100761.34;2108060;27;20016;-68
2023/06/16 07:36:44;;;;;;;10.93;5.90;;;;;;;27.29;41.83;100764.03;2115315;27;20027;-68
2023/06/16 07:37:45;;;;;;;13.48;5.72;;;;;;;27.62;40.75;100768.53;2107128;28;20017;-68
2023/06/16 07:38:50;;;;;;;11.13;5.18;;;;;;;27.58;40.02;100764.94;2098906;28;20025;-69
2023/06/16 07:39:52;;;;;;;11.73;5.53;;;;;;;27.57;40.14;100763.38;2090798;28;20081;-68
2023/06/16 07:40:54;;;;;;;10.50;5.50;;;;;;;27.85;40.34;100757.16;2090751;28;20045;-68
2023/06/16 07:41:56;;;;;;;9.50;5.18;;;;;;;28.04;40.50;100753.25;2106987;28;20027;-68
2023/06/16 07:42:59;;;;;;;11.18;5.63;;;;;;;28.02;39.84;100757.56;2098980;28;20136;-69
2023/06/16 07:44:01;;;;;;;9.35;5.38;;;;;;;27.75;40.08;100760.66;2099249;28;20143;-68
2023/06/16 07:45:05;;;;;;;9.25;5.38;;;;;;;28.12;40.30;100754.03;2115281;27;20038;-68
2023/06/16 07:46:07;;;;;;;7.28;5.50;;;;;;;28.50;39.50;100762.75;2104336;28;20016;-68
2023/06/16 07:47:09;;;;;;;10.35;5.57;;;;;;;28.36;39.65;100761.56;2105379;28;20036;-68
2023/06/16 07:48:11;;;;;;;10.45;5.60;;;;;;;28.51;39.87;100770.66;2097359;28;20029;-68
2023/06/16 07:49:15;;;;;;;10.85;6.78;;;;;;;28.80;39.00;100765.88;2090083;28;20111;-68
2023/06/16 07:50:17;;;;;;;13.60;6.72;;;;;;;28.26;39.97;100759.56;2099993;28;20025;-68
2023/06/16 07:51:25;;;;;;;10.35;6.20;;;;;;;28.08;40.34;100759.56;2115913;27;20154;-68
2023/06/16 07:52:27;;;;;;;11.80;6.38;;;;;;;27.81;40.87;100764.66;2115495;28;20036;-68
2023/06/16 07:53:29;;;;;;;11.32;6.32;;;;;;;27.81;40.91;100766.63;2098822;28;20783;-67
2023/06/16 07:54:31;;;;;;;11.20;6.88;;;;;;;27.07;42.35;100756.81;2090471;28;20057;-68
2023/06/16 07:55:32;;;;;;;10.75;6.85;;;;;;;27.43;41.63;100764.13;2098315;28;20838;-67
2023/06/16 07:56:34;;;;;;;10.02;6.30;;;;;;;27.92;41.32;100757.16;2098413;28;20029;-67
2023/06/16 07:57:41;;;;;;;11.52;6.53;;;;;;;28.24;40.74;100756.41;2098907;28;20076;-68
2023/06/16 07:58:42;;;;;;;10.07;6.60;;;;;;;28.21;40.93;100762.72;2099542;28;20021;-67
2023/06/16 07:59:45;;;;;;;8.77;6.25;;;;;;;28.22;41.58;100758.78;2106985;28;20180;-67
2023/06/16 08:00:46;;;;;;;13.15;7.03;;;;;;;27.75;41.98;100765.41;2090166;28;20026;-68
2023/06/16 08:01:47;;;;;;;10.98;7.03;;;;;;;27.71;42.30;100757.09;2089225;28;20072;-68
2023/06/16 08:02:50;;;;;;;10.25;6.53;;;;;;;28.16;41.66;100755.63;2097809;28;20981;-68
2023/06/16 08:03:51;;;;;;;11.32;6.80;;;;;;;28.28;41.13;100751.69;2092819;28;20483;-68
2023/06/16 08:04:53;;;;;;;8.57;6.05;;;;;;;28.42;41.30;100753.69;2097183;28;20028;-68
2023/06/16 08:05:55;;;;;;;12.00;7.07;;;;;;;28.53;40.83;100761.97;2094642;28;20041;-69
2023/06/16 08:06:58;;;;;;;13.75;7.38;;;;;;;28.42;41.07;100757.22;2105773;28;20065;-69
2023/06/16 08:08:02;;;;;;;8.95;6.60;;;;;;;28.59;41.26;100758.44;2105920;28;20049;-68
2023/06/16 08:09:05;;;;;;;12.48;7.13;;;;;;;28.81;40.49;100756.38;2099060;28;20943;-68
2023/06/16 08:10:08;;;;;;;10.95;7.20;;;;;;;28.95;39.93;100755.59;2107484;28;20127;-67
2023/06/16 08:11:12;;;;;;;13.23;7.38;;;;;;;28.91;40.03;100760.34;2090221;28;20088;-69
2023/06/16 08:12:18;;;;;;;12.45;7.38;;;;;;;28.58;40.30;100758.81;2100157;27;20020;-68
2023/06/16 08:13:19;;;;;;;10.68;7.10;;;;;;;28.36;40.61;100752.47;2099095;28;20839;-69
2023/06/16 08:14:22;;;;;;;10.75;7.38;;;;;;;28.01;41.27;100764.31;2099362;28;20051;-68
2023/06/16 08:15:23;;;;;;;10.45;7.18;;;;;;;27.74;41.84;100753.53;2098517;28;20037;-68
2023/06/16 08:16:27;;;;;;;9.35;6.70;;;;;;;27.58;42.20;100761.38;2081906;28;20022;-69
2023/06/16 08:17:29;;;;;;;11.68;7.82;;;;;;;27.05;43.23;100757.22;2090595;28;20033;-68
2023/06/16 08:18:31;;;;;;;12.05;7.50;;;;;;;26.95;43.77;100760.69;2098240;28;20025;-69
2023/06/16 08:19:33;;;;;;;11.90;7.25;;;;;;;26.45;44.34;100763.88;2098670;28;20017;-68
2023/06/16 08:20:35;;;;;;;13.02;7.88;;;;;;;25.93;45.53;100757.50;2090586;28;20029;-68
2023/06/16 08:21:39;;;;;;;12.48;8.02;;;;;;;25.66;46.69;100760.34;2090390;28;20025;-68
2023/06/16 08:22:41;;;;;;;14.43;7.80;;;;;;;25.39;47.68;100761.59;2082798;28;20844;-68
2023/06/16 08:23:46;;;;;;;11.48;7.95;;;;;;;24.95;47.64;100770.41;2082228;28;20041;-67
2023/06/16 08:24:50;;;;;;;11.95;7.40;;;;;;;24.43;48.71;100769.19;2088239;28;20037;-68
2023/06/16 08:25:53;;;;;;;14.93;8.18;;;;;;;23.90;49.94;100760.81;2105846;28;20012;-68
2023/06/16 08:26:58;;;;;;;13.30;8.35;;;;;;;23.68;50.72;100760.34;2113935;28;20133;-68
2023/06/16 08:28:00;;;;;;;12.88;7.82;;;;;;;23.49;50.78;100769.41;2107639;28;20913;-67
2023/06/16 08:29:04;;;;;;;13.70;8.10;;;;;;;23.19;51.63;100771.09;2101163;28;20144;-67
2023/06/16 08:30:11;;;;;;;13.70;8.75;;;;;;;22.72;52.92;100767.25;2106840;28;20107;-67
2023/06/16 08:31:13;;;;;;;13.75;8.00;;;;;;;22.40;53.56;100770.03;2098323;28;20021;-67
2023/06/16 08:32:21;;;;;;;11.75;8.10;;;;;;;22.07;54.05;100775.00;2099669;28;20037;-68
2023/06/16 08:33:24;;;;;;;11.27;7.03;;;;;;;21.88;55.54;100773.75;2115576;28;20016;-68
2023/06/16 08:34:25;;;;;;;15.82;8.63;;;;;;;21.87;55.25;100774.88;2106616;28;20024;-67
2023/06/16 08:35:30;;;;;;;12.52;7.70;;;;;;;21.65;56.54;100783.63;2106392;28;20167;-68
2023/06/16 08:36:33;;;;;;;11.93;8.95;;;;;;;21.24;58.02;100771.88;2106630;28;20044;-68
2023/06/16 08:37:35;;;;;;;10.10;8.23;;;;;;;21.27;59.06;100773.91;2098304;28;20076;-69
2023/06/16 08:38:37;;;;;;;14.60;8.43;;;;;;;21.37;59.62;100767.19;2098966;28;20819;-68
2023/06/16 08:39:44;;;;;;;12.25;8.77;;;;;;;21.39;59.76;100762.97;2098730;28;20017;-68
2023/06/16 08:40:46;;;;;;;11.82;8.40;;;;;;;21.39;59.22;100771.19;2082586;28;20086;-69
2023/06/16 08:41:51;;;;;;;11.00;7.90;;;;;;;21.41;58.88;100763.44;2082543;28;20026;-68
2023/06/16 08:42:55;;;;;;;15.02;7.90;;;;;;;21.55;58.23;100768.50;2090120;28;20804;-69
2023/06/16 08:44:01;;;;;;;13.10;8.50;;;;;;;21.60;57.14;100771.00;2090039;28;20065;-68
2023/06/16 08:45:05;;;;;;;9.82;7.45;;;;;;;21.60;57.74;100760.06;2097600;28;20029;-69
2023/06/16 08:46:10;;;;;;;11.93;7.75;;;;;;;21.59;58.69;100760.41;2088695;28;20164;-70
2023/06/16 08:47:12;;;;;;;12.90;8.02;;;;;;;21.65;58.06;100756.28;2098035;28;20029;-69
2023/06/16 08:48:15;;;;;;;14.20;8.13;;;;;;;21.64;57.84;100771.13;2105486;28;20055;-67
2023/06/16 08:49:18;;;;;;;13.80;9.20;;;;;;;21.40;58.78;100759.09;2098129;28;20025;-68
2023/06/16 08:50:22;;;;;;;12.32;8.20;;;;;;;21.04;59.81;100766.22;2106009;28;20112;-69
2023/06/16 08:51:27;;;;;;;12.82;9.23;;;;;;;20.65;61.53;100761.47;2106749;28;20084;-69
2023/06/16 08:52:34;;;;;;;16.92;8.85;;;;;;;20.64;62.18;100759.88;2104562;28;20025;-67
2023/06/16 08:53:36;;;;;;;14.93;9.40;;;;;;;20.62;62.56;100760.22;2096700;28;20144;-68
2023/06/16 08:54:46;;;;;;;13.55;8.98;;;;;;;20.67;63.27;100761.94;2079615;28;20034;-67
2023/06/16 08:55:53;;;;;;;13.30;8.48;;;;;;;20.78;61.99;100757.59;2073157;28;20058;-69
2023/06/16 08:57:09;;;;;;;12.55;8.23;;;;;;;20.88;60.97;100761.81;2104885;28;20033;-69
2023/06/16 08:58:13;;;;;;;14.35;9.05;;;;;;;20.83;60.97;100760.09;2104792;28;20028;-70
2023/06/16 08:59:17;;;;;;;15.00;8.48;;;;;;;20.80;61.05;100771.72;2105061;28;20775;-68
2023/06/16 09:00:21;;;;;;;15.70;9.32;;;;;;;20.78;60.92;100763.06;2105033;28;20024;-71
2023/06/16 09:01:24;;;;;;;11.63;8.43;;;;;;;20.85;61.13;100763.28;2096462;28;20029;-68
2023/06/16 09:02:29;;;;;;;12.35;8.50;;;;;;;20.98;61.59;100764.88;2088809;28;20060;-69
2023/06/16 09:03:33;;;;;;;12.63;8.27;;;;;;;20.94;62.21;100753.03;2104626;28;20147;-71
2023/06/16 09:04:37;;;;;;;14.27;8.80;;;;;;;21.07;62.06;100759.28;2103780;28;20847;-71
2023/06/16 09:05:39;;;;;;;14.23;9.05;;;;;;;20.93;61.78;100761.56;2104228;28;20032;-71
2023/06/16 09:06:54;;;;;;;14.07;9.40;;;;;;;20.78;62.03;100761.13;2095341;28;20173;-69
2023/06/16 09:07:58;;;;;;;14.20;8.82;;;;;;;20.75;61.82;100770.00;2098194;28;20871;-69
2023/06/16 09:09:01;;;;;;;17.45;9.32;;;;;;;20.74;62.20;100756.69;2097423;28;20041;-70
2023/06/16 09:10:02;;;;;;;15.43;9.77;;;;;;;20.74;61.78;100762.97;2105492;28;20137;-70
2023/06/16 09:11:08;;;;;;;14.98;10.23;;;;;;;20.68;61.40;100764.34;2113887;28;21288;-70
2023/06/16 09:12:13;;;;;;;13.52;9.32;;;;;;;20.57;62.05;100774.91;2096326;28;20037;-70
2023/06/16 09:13:19;;;;;;;18.92;10.65;;;;;;;20.65;61.48;100772.38;2090044;28;20025;-70
2023/06/16 09:14:20;;;;;;;17.02;9.38;;;;;;;20.70;61.50;100764.75;2092857;28;20093;-71
2023/06/16 09:15:25;;;;;;;14.93;9.35;;;;;;;20.77;62.28;100762.25;2097873;28;20033;-71
2023/06/16 09:16:27;;;;;;;17.70;10.35;;;;;;;20.79;63.92;100761.94;2106025;28;20838;-70
2023/06/16 09:17:33;;;;;;;16.55;9.57;;;;;;;20.70;65.14;100766.72;2089813;28;20068;-71
2023/06/16 09:18:40;;;;;;;15.88;10.70;;;;;;;20.68;66.16;100764.34;2083274;28;20844;-71
2023/06/16 09:19:47;;;;;;;17.27;10.57;;;;;;;20.46;65.72;100771.00;2092692;28;21218;-70
2023/06/16 09:20:53;;;;;;;15.43;9.93;;;;;;;20.35;66.68;100761.66;2099276;28;20072;-72
2023/06/16 09:21:59;;;;;;;15.57;10.38;;;;;;;19.61;68.71;100771.53;2106955;28;20079;-71
2023/06/16 09:23:01;;;;;;;18.13;9.73;;;;;;;19.53;69.51;100765.00;2105517;28;20100;-70
2023/06/16 09:24:07;;;;;;;14.27;10.50;;;;;;;19.73;69.99;100759.88;2105114;28;20031;-71
2023/06/16 09:25:12;;;;;;;15.48;10.50;;;;;;;19.85;70.26;100765.41;2106732;28;20035;-71
2023/06/16 09:26:15;;;;;;;20.33;11.20;;;;;;;19.79;71.72;100766.75;2098445;28;20028;-71
2023/06/16 09:27:18;;;;;;;19.02;11.18;;;;;;;19.60;71.96;100770.72;2083207;28;20041;-71
2023/06/16 09:28:34;;;;;;;17.38;10.95;;;;;;;19.56;72.50;100764.34;2099147;28;20040;-71
2023/06/16 09:29:37;;;;;;;17.48;10.75;;;;;;;19.60;71.39;100775.38;2106299;28;20135;-70
2023/06/16 09:30:41;;;;;;;19.15;10.65;;;;;;;19.57;70.72;100776.84;2106825;28;20873;-69
2023/06/16 09:31:43;;;;;;;15.32;11.05;;;;;;;19.33;71.11;100771.28;2098391;28;20103;-70
2023/06/16 09:32:47;;;;;;;17.25;11.30;;;;;;;19.18;72.18;100770.72;2082536;28;20042;-70
2023/06/16 09:33:51;;;;;;;14.48;11.45;;;;;;;19.23;72.59;100767.03;2082944;28;20093;-71
2023/06/16 09:34:53;;;;;;;16.88;11.65;;;;;;;19.30;73.03;100766.50;2088536;28;20034;-71
2023/06/16 09:35:56;;;;;;;18.73;11.50;;;;;;;19.33;72.75;100765.84;2085483;28;20061;-71
2023/06/16 09:36:58;;;;;;;16.85;11.75;;;;;;;19.09;71.90;100767.25;2088511;28;20029;-71
2023/06/16 09:38:03;;;;;;;15.48;10.75;;;;;;;19.15;71.92;100759.69;2091446;28;20068;-71
2023/06/16 09:39:07;;;;;;;18.98;11.30;;;;;;;19.02;72.76;100764.28;2090130;28;20105;-66
2023/06/16 09:40:10;;;;;;;16.05;11.25;;;;;;;18.92;72.47;100768.19;2088513;28;20026;-67
2023/06/16 09:41:15;;;;;;;14.93;9.45;;;;;;;19.13;72.28;100767.38;2086979;28;20025;-67
2023/06/16 09:42:18;;;;;;;12.32;8.93;;;;;;;19.29;70.34;100759.44;2093625;28;21296;-68
2023/06/16 09:43:20;;;;;;;15.98;10.02;;;;;;;19.31;70.63;100770.81;2078974;28;20030;-67
2023/06/16 09:44:25;;;;;;;15.35;10.32;;;;;;;19.42;70.86;100763.84;2067320;28;20762;-67
2023/06/16 09:45:35;;;;;;;14.98;10.45;;;;;;;19.41;71.01;100764.94;2085696;28;20042;-67
2023/06/16 09:46:37;;;;;;;14.35;9.70;;;;;;;19.47;70.70;100771.78;2102100;28;20041;-67
2023/06/16 09:47:43;;;;;;;14.68;10.52;;;;;;;19.48;70.31;100778.84;2093301;28;20025;-67
2023/06/16 09:48:48;;;;;;;14.90;10.77;;;;;;;19.16;70.70;100775.69;2085395;28;20029;-66
2023/06/16 09:49:53;;;;;;;15.63;10.90;;;;;;;18.99;71.99;100773.09;2087402;28;20653;-67
2023/06/16 09:50:55;;;;;;;16.05;12.00;;;;;;;19.11;72.79;100765.00;2083629;28;20022;-68
2023/06/16 09:51:58;;;;;;;16.80;11.63;;;;;;;19.30;73.07;100766.50;2097144;28;20028;-67
2023/06/16 09:53:04;;;;;;;17.50;11.45;;;;;;;19.35;72.02;100774.44;2113361;28;20036;-68
2023/06/16 09:54:06;;;;;;;15.70;11.55;;;;;;;19.34;71.43;100761.97;2099770;28;20033;-67
2023/06/16 09:55:09;;;;;;;16.95;11.07;;;;;;;19.44;71.72;100767.81;2105133;28;20064;-67
2023/06/16 09:56:17;;;;;;;14.85;11.55;;;;;;;19.28;71.20;100774.19;2095537;28;20839;-67
2023/06/16 09:57:20;;;;;;;13.77;10.40;;;;;;;19.29;71.26;100771.13;2089998;28;20149;-67
2023/06/16 09:58:24;;;;;;;15.18;10.93;;;;;;;19.37;71.26;100777.66;2088995;28;20132;-68
2023/06/16 09:59:27;;;;;;;16.08;11.27;;;;;;;19.37;70.67;100767.53;2083395;28;20034;-67
2023/06/16 10:00:30;;;;;;;14.70;10.65;;;;;;;19.47;70.79;100777.25;2091599;28;20088;-67
2023/06/16 10:01:33;;;;;;;17.92;10.02;;;;;;;19.51;69.62;100769.19;2083813;28;20056;-67
2023/06/16 10:02:36;;;;;;;14.05;9.98;;;;;;;19.61;68.63;100775.06;2074514;28;20026;-67
2023/06/16 10:03:39;;;;;;;16.30;10.57;;;;;;;19.61;68.29;100772.34;2081776;28;20762;-67
2023/06/16 10:04:42;;;;;;;14.52;10.30;;;;;;;19.63;68.79;100775.50;2082545;28;20026;-68
2023/06/16 10:05:48;;;;;;;11.90;8.95;;;;;;;19.70;67.02;100771.47;2090013;28;20149;-67